Time;durP1;ratioP1;P1;durP2;ratioP2;P2;SDS_P1;SDS_P2;PMS_P1;PMS_P2;Temp;Humidity;BMP_temperature;BMP_pressure;BME280_temperature;BME280_humidity;BME280_pressure;Samples;Min_cycle;Max_cycle;Signal;HPM_P1;HPM_P2
2022/12/15 00:40:21;;;;;;;0.82;0.82;;;;;;;14.60;27.60;98695.94;5050315;28;20043;-95
2022/12/15 00:42:47;;;;;;;1.15;1.05;;;;;;;14.71;27.94;98731.78;5058676;28;20029;-94
2022/12/15 00:45:13;;;;;;;1.20;1.10;;;;;;;14.63;27.89;98723.13;5025319;28;20024;-95
2022/12/15 00:47:38;;;;;;;1.30;1.10;;;;;;;14.61;27.59;98697.56;5048821;28;20033;-95
2022/12/15 01:20:17;;;;;;;1.00;0.90;;;;;;;14.51;27.84;98751.22;5061982;28;20035;-95
2022/12/15 01:23:02;;;;;;;1.02;0.93;;;;;;;14.56;27.68;98759.34;5034666;28;20055;-94
2022/12/15 01:25:28;;;;;;;1.02;0.90;;;;;;;14.56;27.73;98762.81;5052408;28;20045;-95
2022/12/15 01:27:54;;;;;;;1.92;1.00;;;;;;;14.49;27.75;98745.25;5030057;28;20025;-94
2022/12/15 01:30:26;;;;;;;0.90;0.90;;;;;;;14.48;28.11;98747.13;5030421;28;20036;-95
2022/12/15 01:32:55;;;;;;;1.08;0.98;;;;;;;14.56;27.78;98767.41;5059426;28;20068;-95
2022/12/15 01:35:23;;;;;;;1.40;0.90;;;;;;;14.51;28.00;98753.91;5041416;28;20032;-95
2022/12/15 01:37:49;;;;;;;1.40;0.90;;;;;;;14.60;27.81;98776.59;5057515;28;20028;-95
2022/12/15 01:43:00;;;;;;;1.00;1.00;;;;;;;14.59;27.86;98774.97;5035705;28;20035;-94
2022/12/15 01:45:26;;;;;;;1.10;0.90;;;;;;;14.63;27.90;98773.41;5038045;28;20033;-95
2022/12/15 01:47:54;;;;;;;1.10;1.00;;;;;;;14.52;27.88;98742.91;5061599;28;20493;-95
2022/12/15 01:50:20;;;;;;;1.42;1.00;;;;;;;14.63;27.54;98757.28;5027522;28;20178;-95
2022/12/15 01:52:46;;;;;;;1.00;0.90;;;;;;;14.46;27.64;98755.44;5029954;28;20477;-95
2022/12/15 01:55:12;;;;;;;1.00;1.00;;;;;;;14.51;28.01;98749.31;5034009;28;20033;-95
2022/12/15 01:57:38;;;;;;;0.77;0.77;;;;;;;14.60;27.92;98780.09;5042484;28;20481;-96
2022/12/15 02:00:05;;;;;;;1.42;1.10;;;;;;;14.56;27.68;98778.16;5018134;28;20150;-95
2022/12/15 02:02:31;;;;;;;1.65;0.93;;;;;;;14.56;27.75;98799.66;5030087;28;20519;-95
2022/12/15 02:04:57;;;;;;;1.38;0.95;;;;;;;14.46;28.02;98803.84;5022792;28;20116;-94
2022/12/15 02:07:23;;;;;;;1.50;1.15;;;;;;;14.35;27.90;98788.69;5013154;28;20025;-95
2022/12/15 02:09:49;;;;;;;0.90;0.90;;;;;;;14.49;28.00;98812.47;5018024;28;20491;-96
2022/12/15 02:12:39;;;;;;;1.30;1.02;;;;;;;14.59;27.66;98826.03;5017400;28;20052;-94
2022/12/15 02:15:10;;;;;;;1.33;0.88;;;;;;;14.56;27.97;98839.97;5048857;28;20279;-95
2022/12/15 02:18:12;;;;;;;1.23;1.13;;;;;;;14.56;27.98;98845.34;5054713;28;20028;-95
2022/12/15 02:20:59;;;;;;;1.00;0.80;;;;;;;14.53;27.89;98827.84;5048599;28;20035;-95
2022/12/15 02:23:46;;;;;;;1.33;1.05;;;;;;;14.54;27.77;98821.41;5056502;28;20031;-95
2022/12/15 02:26:24;;;;;;;1.10;1.00;;;;;;;14.48;27.91;98813.53;5053050;28;20024;-95
2022/12/15 02:28:56;;;;;;;1.40;0.73;;;;;;;14.43;27.74;98809.72;5035991;28;20032;-95
2022/12/15 02:31:49;;;;;;;0.80;0.80;;;;;;;14.28;27.72;98782.69;5034860;28;20505;-96
2022/12/15 02:34:29;;;;;;;1.30;1.17;;;;;;;14.48;27.72;98813.53;5032845;28;20035;-95
2022/12/15 02:37:05;;;;;;;1.20;1.02;;;;;;;14.34;28.15;98824.66;5057552;28;20032;-95
2022/12/15 02:39:30;;;;;;;1.52;1.00;;;;;;;14.36;28.11;98833.28;5045005;28;20106;-95
2022/12/15 02:41:56;;;;;;;1.13;1.00;;;;;;;14.33;27.90;98823.06;5056641;28;20057;-95
2022/12/15 02:44:29;;;;;;;0.82;0.80;;;;;;;14.39;28.04;98840.03;5019423;28;20033;-95
2022/12/15 02:47:22;;;;;;;1.30;1.00;;;;;;;14.53;27.99;98853.91;5019274;28;20496;-95
2022/12/15 02:49:55;;;;;;;1.20;0.90;;;;;;;14.41;27.75;98845.97;5063299;28;20421;-95
2022/12/15 02:52:33;;;;;;;1.42;1.10;;;;;;;14.47;27.78;98861.13;5056820;28;20021;-95
2022/12/15 02:55:23;;;;;;;0.82;0.77;;;;;;;14.35;27.96;98850.47;5054654;28;20028;-95
2022/12/15 02:58:00;;;;;;;0.80;0.80;;;;;;;14.46;27.66;98844.16;5039201;28;20032;-95
2022/12/15 03:00:25;;;;;;;1.10;0.93;;;;;;;14.24;27.92;98813.78;5040001;28;20017;-96
2022/12/15 03:02:52;;;;;;;0.80;0.80;;;;;;;14.36;27.97;98849.41;5017123;28;20031;-96
2022/12/15 03:05:18;;;;;;;1.65;1.00;;;;;;;14.33;27.72;98839.19;5023486;28;20112;-95
2022/12/15 03:07:43;;;;;;;2.00;1.10;;;;;;;14.25;27.56;98853.84;5051244;28;20031;-94
2022/12/15 03:10:11;;;;;;;1.33;0.90;;;;;;;14.37;27.77;98851.03;5051557;28;20055;-95
2022/12/15 03:12:36;;;;;;;0.70;0.70;;;;;;;14.24;27.88;98840.66;5025511;28;20028;-96
2022/12/15 03:15:02;;;;;;;0.73;0.73;;;;;;;14.32;27.78;98847.50;5064248;28;20024;-95
2022/12/15 03:17:28;;;;;;;1.20;1.00;;;;;;;14.44;27.95;98864.28;5038791;28;20025;-95
2022/12/15 03:19:53;;;;;;;1.50;0.93;;;;;;;14.24;27.81;98848.72;5037662;28;20032;-95
2022/12/15 03:22:19;;;;;;;0.80;0.80;;;;;;;14.18;27.94;98855.09;5037495;28;20028;-95
2022/12/15 03:24:45;;;;;;;1.17;0.90;;;;;;;14.20;27.81;98861.84;5053883;28;20062;-95
2022/12/15 03:27:10;;;;;;;1.00;0.73;;;;;;;14.27;28.00;98883.97;5035056;28;20190;-95
2022/12/15 03:29:36;;;;;;;0.75;0.73;;;;;;;14.36;27.82;98897.78;5053429;28;20111;-94
2022/12/15 03:32:02;;;;;;;0.93;0.82;;;;;;;14.38;28.15;98895.66;5043938;28;20040;-95
2022/12/15 03:34:27;;;;;;;1.20;0.90;;;;;;;14.31;27.94;98896.91;5022230;28;20110;-95
2022/12/15 03:36:53;;;;;;;0.95;0.80;;;;;;;14.40;28.08;98887.34;5022353;28;20089;-95
2022/12/15 03:39:19;;;;;;;1.25;1.00;;;;;;;14.21;27.83;98868.03;5054326;28;20051;-95
2022/12/15 03:41:44;;;;;;;0.90;0.70;;;;;;;14.31;28.12;98888.84;5017809;28;20116;-95
2022/12/15 03:44:10;;;;;;;1.58;0.90;;;;;;;14.24;28.11;98891.72;5043002;28;20029;-95
2022/12/15 03:46:36;;;;;;;0.88;0.85;;;;;;;14.17;27.88;98891.09;5027425;28;20816;-95
2022/12/15 03:49:02;;;;;;;0.98;0.73;;;;;;;14.37;27.83;98942.41;5028439;28;20037;-95
2022/12/15 03:51:27;;;;;;;0.93;0.88;;;;;;;14.30;28.08;98936.41;5030946;28;20033;-95
2022/12/15 03:53:53;;;;;;;1.08;0.93;;;;;;;14.13;27.98;98914.94;5028174;28;20044;-95
2022/12/15 03:56:19;;;;;;;1.50;1.00;;;;;;;14.23;27.87;98933.91;5040909;28;20119;-95
2022/12/15 03:58:44;;;;;;;0.88;0.80;;;;;;;14.21;28.04;98932.50;5041006;28;20029;-95
2022/12/15 04:01:11;;;;;;;0.90;0.80;;;;;;;14.23;27.94;98941.16;5052120;28;20542;-95
2022/12/15 04:03:37;;;;;;;0.80;0.75;;;;;;;14.24;27.70;98946.25;5035990;28;20033;-95
2022/12/15 04:06:03;;;;;;;0.85;0.80;;;;;;;14.28;28.04;98938.53;5051149;28;20390;-95
2022/12/15 04:08:29;;;;;;;0.80;0.80;;;;;;;14.17;28.04;98904.50;5038060;28;20093;-95
2022/12/15 04:10:54;;;;;;;1.63;0.90;;;;;;;14.36;27.86;98940.78;5038166;28;20028;-95
2022/12/15 04:13:29;;;;;;;0.93;0.80;;;;;;;14.07;27.94;98911.38;5038192;28;20623;-95
2022/12/15 04:15:54;;;;;;;1.55;0.90;;;;;;;14.17;28.02;98926.81;5040731;28;20139;-95
2022/12/15 04:18:20;;;;;;;1.20;0.90;;;;;;;14.18;27.84;98941.88;5054779;28;20056;-95
2022/12/15 04:20:46;;;;;;;1.05;0.85;;;;;;;14.31;27.89;98964.09;5038006;28;20070;-96
2022/12/15 04:23:11;;;;;;;0.80;0.80;;;;;;;14.18;27.79;98943.78;5031591;28;20037;-95
2022/12/15 05:31:54;;;;;;;0.80;0.70;;;;;;;14.15;27.92;99019.47;5055089;28;20165;-95
2022/12/15 05:34:30;;;;;;;0.85;0.75;;;;;;;14.00;27.84;99018.16;5051860;28;20432;-95
2022/12/15 05:36:56;;;;;;;1.33;0.90;;;;;;;14.14;27.98;99036.66;5055899;28;20021;-94
2022/12/15 05:39:22;;;;;;;1.10;0.90;;;;;;;14.13;27.84;99032.34;5019358;28;20028;-95
2022/12/15 05:41:49;;;;;;;0.65;0.65;;;;;;;14.16;27.92;99037.22;5054468;28;20078;-95
2022/12/15 05:44:14;;;;;;;0.80;0.70;;;;;;;14.08;27.73;99025.81;5049183;28;20020;-95
2022/12/15 05:46:40;;;;;;;0.63;0.60;;;;;;;14.13;28.09;99035.03;5035028;28;20047;-96
2022/12/15 05:49:06;;;;;;;0.77;0.75;;;;;;;14.21;27.83;99056.09;5039259;28;20473;-95
2022/12/15 05:51:37;;;;;;;0.73;0.73;;;;;;;14.14;28.00;99042.81;5040369;28;20024;-95
2022/12/15 05:54:02;;;;;;;0.68;0.68;;;;;;;14.19;28.01;99055.53;5044319;28;20028;-96
2022/12/15 05:56:28;;;;;;;1.08;0.80;;;;;;;14.09;27.84;99043.56;5011308;28;20350;-95
2022/12/15 05:58:56;;;;;;;0.85;0.70;;;;;;;14.14;27.99;99050.88;5042622;28;20552;-96
2022/12/15 06:01:22;;;;;;;1.05;0.80;;;;;;;14.18;27.69;99072.72;5029481;28;20052;-95
2022/12/15 06:03:47;;;;;;;0.73;0.70;;;;;;;14.16;27.56;99066.78;5028112;28;20036;-94
2022/12/15 06:06:13;;;;;;;1.23;0.65;;;;;;;14.14;28.08;99068.88;5062114;28;20393;-95
2022/12/15 06:08:40;;;;;;;0.73;0.70;;;;;;;14.24;27.63;99087.88;5020250;28;20036;-95
2022/12/15 06:11:06;;;;;;;0.88;0.70;;;;;;;14.26;27.77;99091.13;5034635;28;20466;-95
2022/12/15 06:13:33;;;;;;;0.70;0.70;;;;;;;14.16;27.72;99077.50;5044433;28;20360;-95
2022/12/15 06:16:03;;;;;;;0.60;0.60;;;;;;;14.17;27.76;99081.84;5032079;28;20029;-95
2022/12/15 06:18:30;;;;;;;1.33;0.70;;;;;;;14.13;27.55;99080.72;5040926;28;20028;-95
2022/12/15 06:20:57;;;;;;;1.08;0.80;;;;;;;14.26;27.82;99101.88;5047485;28;20263;-95
2022/12/15 06:23:23;;;;;;;0.95;0.63;;;;;;;14.18;27.76;99094.22;5064636;28;20538;-94
2022/12/15 06:25:49;;;;;;;0.60;0.60;;;;;;;14.17;28.04;99092.59;5040574;28;20028;-95
2022/12/15 06:28:15;;;;;;;0.60;0.60;;;;;;;14.25;28.12;99108.31;5057691;28;20060;-95
2022/12/15 06:30:41;;;;;;;1.45;0.75;;;;;;;14.25;27.96;99100.25;5040683;28;20033;-95
2022/12/15 06:33:07;;;;;;;0.80;0.65;;;;;;;14.12;27.85;99079.06;5028833;28;20236;-95
2022/12/15 06:35:36;;;;;;;0.63;0.63;;;;;;;14.07;27.64;99069.03;5040794;28;20033;-95
2022/12/15 06:38:02;;;;;;;0.77;0.60;;;;;;;14.17;27.81;99081.84;5026209;28;20067;-95
2022/12/15 06:40:27;;;;;;;0.50;0.50;;;;;;;14.23;27.72;99097.00;5040429;28;20185;-95
2022/12/15 06:42:53;;;;;;;1.17;0.75;;;;;;;14.17;27.78;99089.91;5035489;28;20032;-95
2022/12/15 06:45:19;;;;;;;0.93;0.80;;;;;;;14.25;28.04;99100.25;5042673;28;20038;-95
2022/12/15 06:47:47;;;;;;;0.70;0.57;;;;;;;14.28;27.92;99102.47;5064703;28;20056;-95
2022/12/15 06:50:12;;;;;;;0.70;0.70;;;;;;;14.21;27.71;99101.78;5021626;28;20028;-95
2022/12/15 06:52:38;;;;;;;0.70;0.65;;;;;;;14.20;27.98;99109.03;5034959;28;20021;-95
2022/12/15 06:55:04;;;;;;;0.88;0.70;;;;;;;14.09;27.72;99099.19;5042649;28;20405;-95
2022/12/15 06:57:30;;;;;;;1.02;0.88;;;;;;;14.15;27.74;99113.53;5013950;28;20028;-95
2022/12/15 06:59:55;;;;;;;0.98;0.90;;;;;;;14.16;27.78;99128.56;5023042;28;20374;-95
2022/12/15 07:02:21;;;;;;;0.70;0.60;;;;;;;14.21;27.56;99136.72;5028040;28;20036;-95
2022/12/15 07:04:46;;;;;;;1.10;0.75;;;;;;;14.14;27.83;99130.69;5036111;28;20078;-95
2022/12/15 07:07:12;;;;;;;0.70;0.70;;;;;;;14.11;27.86;99131.16;5021361;28;20668;-95
2022/12/15 07:09:38;;;;;;;0.70;0.70;;;;;;;14.25;28.01;99154.81;5036827;28;20115;-96
2022/12/15 07:12:04;;;;;;;0.85;0.80;;;;;;;14.03;27.60;99138.56;5056445;28;20070;-95
2022/12/15 07:14:29;;;;;;;0.60;0.60;;;;;;;14.16;27.82;99160.81;5050181;28;20041;-95
2022/12/15 07:16:55;;;;;;;0.70;0.70;;;;;;;14.13;28.04;99150.56;5019200;28;20033;-96
2022/12/15 07:19:25;;;;;;;0.60;0.60;;;;;;;13.98;27.86;99130.41;5018034;28;20035;-94
2022/12/15 07:21:51;;;;;;;0.77;0.77;;;;;;;14.16;27.68;99167.00;5052018;28;20036;-96
2022/12/15 07:24:17;;;;;;;0.70;0.70;;;;;;;14.12;27.77;99173.09;5033610;28;20127;-95
2022/12/15 07:26:44;;;;;;;1.65;0.60;;;;;;;14.24;27.63;99195.34;5046868;28;20944;-95
2022/12/15 07:29:10;;;;;;;0.60;0.60;;;;;;;14.14;27.69;99184.41;5059857;28;20035;-95
2022/12/15 07:31:36;;;;;;;0.65;0.65;;;;;;;14.14;27.95;99176.34;5040527;28;20405;-94
2022/12/15 07:34:02;;;;;;;0.68;0.68;;;;;;;14.05;27.87;99167.88;5032098;28;20025;-95
2022/12/15 07:36:27;;;;;;;0.63;0.63;;;;;;;14.08;27.62;99189.69;5036822;28;20031;-95
2022/12/15 07:38:59;;;;;;;0.73;0.70;;;;;;;14.13;27.94;99190.88;5033706;28;20448;-95
2022/12/15 07:41:25;;;;;;;0.65;0.65;;;;;;;14.18;27.68;99213.25;5037015;28;20088;-95
2022/12/15 07:43:51;;;;;;;0.85;0.68;;;;;;;14.17;28.04;99206.25;5032653;28;20396;-95
2022/12/15 07:46:17;;;;;;;1.20;0.80;;;;;;;14.08;27.80;99192.38;5034924;28;20039;-95
2022/12/15 07:48:42;;;;;;;1.58;0.80;;;;;;;14.20;27.85;99211.16;5027161;28;20550;-96
2022/12/15 07:51:08;;;;;;;0.80;0.80;;;;;;;14.24;27.86;99222.22;5013298;28;20059;-95
2022/12/15 07:53:34;;;;;;;0.70;0.70;;;;;;;14.14;27.86;99212.09;5062997;28;20059;-95
2022/12/15 07:56:00;;;;;;;1.00;0.90;;;;;;;14.09;27.75;99198.59;5037205;28;20043;-95
2022/12/15 07:58:26;;;;;;;0.90;0.70;;;;;;;14.13;27.86;99221.22;5023561;28;20473;-95
2022/12/15 08:00:52;;;;;;;1.08;0.77;;;;;;;14.04;27.63;99217.31;5015885;28;20098;-95
2022/12/15 08:03:18;;;;;;;0.90;0.70;;;;;;;13.96;27.66;99194.31;5032303;28;20020;-94
2022/12/15 08:05:44;;;;;;;0.70;0.70;;;;;;;14.07;27.86;99204.19;5054834;28;20199;-94
2022/12/15 08:08:13;;;;;;;0.65;0.65;;;;;;;14.11;27.80;99207.22;5034938;28;20479;-95
2022/12/15 08:10:38;;;;;;;0.93;0.70;;;;;;;14.04;27.60;99201.19;5041005;28;20158;-95
2022/12/15 08:13:07;;;;;;;0.50;0.50;;;;;;;14.09;27.75;99212.84;5043258;28;20134;-95
2022/12/15 08:15:36;;;;;;;0.75;0.60;;;;;;;14.09;27.97;99223.56;5051528;28;20029;-95
2022/12/15 08:18:03;;;;;;;0.80;0.70;;;;;;;14.21;27.95;99238.81;5049533;28;20048;-95
2022/12/15 08:20:30;;;;;;;0.90;0.70;;;;;;;14.13;27.70;99223.09;5049055;28;20170;-94
2022/12/15 08:22:55;;;;;;;0.80;0.60;;;;;;;14.16;27.54;99228.81;5040983;28;20028;-94
2022/12/15 08:25:27;;;;;;;1.55;0.80;;;;;;;14.08;27.70;99229.19;5049034;28;20035;-95
2022/12/15 08:27:53;;;;;;;0.98;0.80;;;;;;;14.14;27.62;99257.78;5051472;28;20031;-94
2022/12/15 08:30:19;;;;;;;0.85;0.70;;;;;;;13.91;27.79;99218.38;5019490;28;20109;-95
2022/12/15 08:32:45;;;;;;;0.60;0.60;;;;;;;14.09;27.35;99237.00;5047465;28;20087;-95
2022/12/15 08:35:11;;;;;;;0.80;0.60;;;;;;;14.06;27.66;99240.16;5047902;28;20028;-95
2022/12/15 08:37:44;;;;;;;0.60;0.60;;;;;;;14.12;27.72;99256.38;5050230;28;20117;-95
2022/12/15 08:40:10;;;;;;;1.17;1.02;;;;;;;14.01;27.89;99229.31;5025858;28;20182;-95
2022/12/15 08:42:36;;;;;;;0.77;0.70;;;;;;;14.04;27.60;99238.78;5016760;28;20035;-95
2022/12/15 08:45:02;;;;;;;0.70;0.60;;;;;;;14.13;27.65;99241.91;5033892;28;20029;-95
2022/12/15 08:47:28;;;;;;;0.68;0.57;;;;;;;13.99;27.35;99218.00;5032840;28;20025;-95
2022/12/15 08:49:54;;;;;;;1.00;0.70;;;;;;;13.97;27.48;99225.50;5047801;28;20412;-94
2022/12/15 08:52:23;;;;;;;0.82;0.70;;;;;;;14.14;27.41;99257.78;5052318;28;20081;-94
2022/12/15 08:54:49;;;;;;;0.63;0.63;;;;;;;14.04;27.35;99250.34;5031111;28;20124;-95
2022/12/15 08:57:14;;;;;;;0.60;0.60;;;;;;;14.17;27.73;99270.72;5051889;28;20116;-95
2022/12/15 08:59:40;;;;;;;0.60;0.60;;;;;;;14.09;27.32;99269.25;5022515;28;20418;-94
2022/12/15 09:02:06;;;;;;;0.60;0.60;;;;;;;14.08;27.48;99251.47;5056431;28;20028;-94
2022/12/15 09:04:31;;;;;;;0.65;0.65;;;;;;;14.05;27.36;99251.16;5016540;28;20371;-95
2022/12/15 09:06:57;;;;;;;0.93;0.70;;;;;;;14.04;27.46;99238.78;5051760;28;20025;-95
2022/12/15 09:09:23;;;;;;;0.60;0.60;;;;;;;14.09;27.67;99263.88;5039237;28;20021;-94
2022/12/15 09:11:48;;;;;;;0.85;0.85;;;;;;;13.97;27.63;99246.97;5021029;28;20029;-95
2022/12/15 09:14:15;;;;;;;1.08;0.75;;;;;;;14.11;27.26;99274.38;5033251;28;20328;-95
2022/12/15 09:16:41;;;;;;;0.73;0.60;;;;;;;14.18;27.24;99279.63;5039685;28;20138;-95
2022/12/15 09:19:08;;;;;;;0.80;0.80;;;;;;;14.05;27.36;99276.13;5045901;28;20101;-95
2022/12/15 09:21:33;;;;;;;0.80;0.70;;;;;;;14.07;27.31;99290.16;5043899;28;20040;-94
2022/12/15 09:24:00;;;;;;;0.85;0.80;;;;;;;14.07;27.26;99289.34;5020876;28;20024;-94
2022/12/15 09:26:27;;;;;;;0.80;0.80;;;;;;;14.03;27.22;99310.47;5035393;28;20033;-95
2022/12/15 09:28:54;;;;;;;0.90;0.80;;;;;;;13.87;27.45;99276.31;5034188;28;20033;-95
2022/12/15 09:31:27;;;;;;;0.73;0.70;;;;;;;14.06;27.22;99310.00;5033355;28;20045;-95
2022/12/15 09:33:54;;;;;;;0.50;0.50;;;;;;;14.08;27.13;99324.03;5020147;28;20394;-94
2022/12/15 09:36:19;;;;;;;0.80;0.70;;;;;;;14.01;27.51;99311.78;5024442;28;20370;-95
2022/12/15 09:38:45;;;;;;;0.65;0.63;;;;;;;14.05;27.27;99321.81;5019838;28;20115;-94
2022/12/15 09:41:13;;;;;;;0.75;0.73;;;;;;;14.16;27.36;99333.59;5017264;28;20338;-95
2022/12/15 09:43:55;;;;;;;0.60;0.60;;;;;;;14.13;27.16;99330.56;5046078;28;20035;-95
2022/12/15 09:46:42;;;;;;;0.88;0.80;;;;;;;14.13;27.14;99349.38;5034705;28;20103;-94
2022/12/15 09:49:46;;;;;;;0.80;0.80;;;;;;;14.13;27.47;99333.25;5039656;28;20283;-94
2022/12/15 09:52:15;;;;;;;0.70;0.70;;;;;;;13.91;27.47;99304.31;5048815;28;20041;-95
2022/12/15 09:54:41;;;;;;;0.80;0.80;;;;;;;14.16;27.42;99338.13;5023710;28;20112;-95
2022/12/15 09:57:15;;;;;;;1.08;0.80;;;;;;;13.99;27.17;99330.03;5032490;28;20078;-95
2022/12/15 09:59:50;;;;;;;0.90;0.73;;;;;;;13.89;26.94;99319.84;5036052;28;20298;-95
2022/12/15 10:02:29;;;;;;;0.75;0.75;;;;;;;14.14;27.48;99345.63;5046066;28;20075;-95
2022/12/15 10:05:10;;;;;;;2.03;0.80;;;;;;;13.89;27.23;99303.75;5034413;28;20631;-94
2022/12/15 10:07:42;;;;;;;0.57;0.57;;;;;;;14.05;27.02;99321.81;5035212;28;20036;-95
2022/12/15 10:10:46;;;;;;;0.90;0.90;;;;;;;14.09;26.99;99327.53;5034810;28;20323;-95
2022/12/15 10:13:18;;;;;;;0.88;0.82;;;;;;;13.89;27.40;99301.06;5045366;28;20552;-93
2022/12/15 10:15:52;;;;;;;0.65;0.60;;;;;;;13.80;27.58;99318.59;5037091;28;20040;-95
2022/12/15 10:18:52;;;;;;;0.93;0.85;;;;;;;13.92;27.46;99322.06;5028195;28;20557;-94
2022/12/15 10:21:18;;;;;;;0.80;0.70;;;;;;;14.03;27.14;99340.03;5006019;28;20037;-94
2022/12/15 10:23:50;;;;;;;0.70;0.70;;;;;;;13.95;27.37;99332.31;5037605;28;20043;-94
2022/12/15 10:26:22;;;;;;;1.02;0.80;;;;;;;14.02;27.37;99341.09;5019201;28;20044;-94
2022/12/15 10:29:17;;;;;;;1.23;0.82;;;;;;;14.06;27.02;99339.56;5018349;28;20120;-94
2022/12/15 10:31:57;;;;;;;1.05;0.80;;;;;;;13.98;27.21;99337.25;5035949;28;20101;-94
2022/12/15 10:34:33;;;;;;;1.10;1.00;;;;;;;13.90;27.32;99343.78;5032617;28;20032;-95
2022/12/15 10:36:59;;;;;;;0.82;0.80;;;;;;;13.99;27.09;99360.38;5020775;28;20036;-95
2022/12/15 10:39:39;;;;;;;1.42;0.90;;;;;;;14.01;27.06;99370.88;5015853;28;20029;-93
2022/12/15 10:42:16;;;;;;;1.00;0.70;;;;;;;13.83;27.16;99347.63;5015013;28;20112;-94
2022/12/15 10:45:00;;;;;;;1.00;0.90;;;;;;;14.05;27.06;99383.59;5015839;28;20028;-94
2022/12/15 10:47:30;;;;;;;0.70;0.70;;;;;;;14.03;27.19;99383.00;5016923;28;20529;-94
2022/12/15 10:50:22;;;;;;;1.33;0.90;;;;;;;14.04;27.04;99384.66;5038066;28;20020;-94
2022/12/15 10:52:48;;;;;;;0.85;0.60;;;;;;;14.02;26.95;99386.78;5038656;28;20031;-94
2022/12/15 10:55:36;;;;;;;0.70;0.70;;;;;;;13.96;27.33;99384.19;5035492;28;20425;-94
2022/12/15 10:58:03;;;;;;;0.77;0.70;;;;;;;13.90;27.29;99377.88;5037251;28;20088;-94
2022/12/15 11:00:30;;;;;;;0.70;0.70;;;;;;;13.95;27.14;99391.41;5041039;28;20020;-94
2022/12/15 11:02:57;;;;;;;0.70;0.70;;;;;;;13.90;27.04;99388.63;5020384;28;20041;-94
2022/12/15 11:05:23;;;;;;;0.77;0.60;;;;;;;13.89;27.19;99395.06;5043385;28;20149;-94
2022/12/15 11:07:50;;;;;;;0.60;0.60;;;;;;;13.75;26.83;99390.97;5044327;28;20516;-94
2022/12/15 11:10:21;;;;;;;0.93;0.70;;;;;;;13.96;26.85;99409.19;5059036;28;20021;-94
2022/12/15 11:13:09;;;;;;;0.93;0.80;;;;;;;14.02;27.07;99423.53;5039527;28;20048;-94
2022/12/15 11:15:51;;;;;;;0.93;0.77;;;;;;;13.78;26.93;99401.22;5047823;28;20032;-95
2022/12/15 11:18:22;;;;;;;0.85;0.77;;;;;;;13.90;26.81;99412.78;5039399;28;20025;-94
2022/12/15 11:21:05;;;;;;;1.10;0.98;;;;;;;13.99;26.92;99430.22;5051449;28;20044;-94
2022/12/15 11:23:51;;;;;;;0.75;0.75;;;;;;;14.01;26.96;99427.31;5053698;28;20032;-94
2022/12/15 11:26:35;;;;;;;0.70;0.70;;;;;;;14.00;26.83;99425.66;5052205;28;20025;-94
2022/12/15 11:29:08;;;;;;;1.23;0.88;;;;;;;13.89;26.97;99430.78;5064108;28;20111;-95
2022/12/15 11:31:37;;;;;;;0.73;0.73;;;;;;;13.94;26.99;99426.59;5038499;28;20050;-93
2022/12/15 11:34:09;;;;;;;0.90;0.90;;;;;;;13.88;26.75;99412.22;5049368;28;20036;-94
2022/12/15 11:36:58;;;;;;;0.80;0.80;;;;;;;13.98;27.06;99430.44;5027817;28;21089;-94
2022/12/15 11:39:46;;;;;;;0.82;0.70;;;;;;;13.96;26.75;99436.03;5059793;28;20033;-95
2022/12/15 11:42:41;;;;;;;0.88;0.80;;;;;;;13.89;26.82;99435.34;5054153;28;20123;-94
2022/12/15 11:45:24;;;;;;;1.40;0.98;;;;;;;13.95;27.03;99445.16;5050225;28;20028;-95
2022/12/15 11:48:12;;;;;;;1.02;0.73;;;;;;;13.86;26.68;99435.81;5053681;28;20192;-94
2022/12/15 11:51:09;;;;;;;0.93;0.80;;;;;;;13.78;27.05;99428.09;5054081;28;20057;-95
2022/12/15 11:53:46;;;;;;;0.82;0.80;;;;;;;13.93;26.83;99455.31;5050663;28;20372;-94
2022/12/15 11:56:31;;;;;;;1.13;0.98;;;;;;;13.73;26.97;99438.72;5036386;28;20584;-94
2022/12/15 11:59:57;;;;;;;1.10;0.90;;;;;;;13.86;26.90;99451.91;5043316;28;20103;-94
2022/12/15 12:02:48;;;;;;;1.17;0.90;;;;;;;13.93;26.99;99458.00;4968804;28;20108;-94
2022/12/15 12:05:37;;;;;;;1.13;0.88;;;;;;;13.87;26.87;99458.94;4960817;28;20042;-93
2022/12/15 12:08:08;;;;;;;0.88;0.85;;;;;;;13.90;26.94;99464.66;5022774;28;20064;-94
2022/12/15 12:11:00;;;;;;;1.08;0.90;;;;;;;13.92;26.96;99455.53;5050707;28;20119;-94
2022/12/15 12:14:03;;;;;;;0.70;0.70;;;;;;;13.92;26.72;99459.06;5035417;28;20173;-94
2022/12/15 12:16:37;;;;;;;0.93;0.82;;;;;;;13.88;26.63;99469.47;5062055;28;20110;-94
2022/12/15 12:19:10;;;;;;;1.63;0.85;;;;;;;13.88;27.14;99476.69;5052145;28;20653;-94
2022/12/15 12:21:43;;;;;;;0.87;0.77;;;;;;;13.70;26.71;99448.88;5026637;28;20032;-94
2022/12/15 12:24:26;;;;;;;1.00;0.90;;;;;;;13.89;26.97;99471.06;5063797;28;20377;-94
2022/12/15 12:27:03;;;;;;;1.15;0.88;;;;;;;13.67;26.57;99443.94;5057464;28;20307;-94
2022/12/15 12:29:38;;;;;;;1.63;1.00;;;;;;;13.85;26.76;99461.03;5033274;28;20062;-94
2022/12/15 12:32:14;;;;;;;0.75;0.75;;;;;;;13.74;26.75;99433.09;5022288;28;20407;-94
2022/12/15 12:35:03;;;;;;;1.02;0.70;;;;;;;13.71;26.49;99431.72;5056776;28;20021;-94
2022/12/15 12:37:47;;;;;;;2.08;0.80;;;;;;;13.76;26.61;99462.41;5046436;28;20447;-93
2022/12/15 12:40:18;;;;;;;0.85;0.85;;;;;;;13.84;26.67;99464.78;5055915;28;20024;-94
2022/12/15 12:42:55;;;;;;;1.00;0.90;;;;;;;13.76;26.64;99451.69;5029636;28;20040;-94
2022/12/15 12:45:43;;;;;;;2.67;0.80;;;;;;;13.85;26.73;99461.03;5042618;28;20044;-94
2022/12/15 12:48:19;;;;;;;1.05;0.90;;;;;;;13.69;26.51;99451.78;5044968;28;20047;-94
2022/12/15 12:50:45;;;;;;;0.73;0.73;;;;;;;13.78;26.47;99463.00;5021704;28;20508;-94
2022/12/15 12:53:43;;;;;;;0.70;0.70;;;;;;;13.83;26.45;99480.06;5035753;28;20060;-95
2022/12/15 12:56:47;;;;;;;1.00;0.90;;;;;;;13.77;26.35;99472.94;5022083;28;20049;-94
2022/12/15 12:59:28;;;;;;;1.98;0.73;;;;;;;13.80;26.62;99474.34;5009725;28;20022;-93
2022/12/15 13:01:54;;;;;;;1.13;0.90;;;;;;;13.65;26.65;99466.72;5017736;28;20055;-94
2022/12/15 13:04:29;;;;;;;1.13;1.00;;;;;;;13.78;26.43;99488.00;5033136;28;20035;-93
2022/12/15 13:06:54;;;;;;;1.17;0.90;;;;;;;13.77;26.58;99491.72;5062101;28;20094;-94
2022/12/15 13:09:24;;;;;;;1.10;1.00;;;;;;;13.67;26.50;99483.41;5062250;28;20431;-93
2022/12/15 13:11:57;;;;;;;0.90;0.90;;;;;;;13.68;26.52;99474.31;5035998;28;20036;-93
2022/12/15 13:14:43;;;;;;;0.98;0.88;;;;;;;13.64;26.67;99460.53;5039339;28;20060;-94
2022/12/15 13:17:30;;;;;;;0.98;0.98;;;;;;;13.63;26.30;99469.63;5035242;28;20021;-93
2022/12/15 13:19:55;;;;;;;1.58;1.05;;;;;;;13.75;26.65;99482.28;5052022;28;20021;-93
2022/12/15 13:22:34;;;;;;;0.70;0.60;;;;;;;13.59;26.55;99468.47;5047002;28;20039;-94
2022/12/15 13:25:00;;;;;;;0.80;0.80;;;;;;;13.62;26.33;99473.34;5036274;28;20021;-93
2022/12/15 13:27:36;;;;;;;1.08;0.90;;;;;;;13.73;26.24;99485.19;5036428;28;20481;-94
2022/12/15 13:30:08;;;;;;;1.00;0.77;;;;;;;13.71;26.55;99485.41;5043356;28;20097;-94
2022/12/15 13:32:44;;;;;;;1.00;1.00;;;;;;;13.58;26.53;99469.50;5050831;28;20166;-94
2022/12/15 13:35:12;;;;;;;0.80;0.80;;;;;;;13.68;26.24;99485.88;5043378;28;20269;-93
2022/12/15 13:37:54;;;;;;;0.82;0.82;;;;;;;13.70;26.39;99481.09;5060865;28;20452;-94
2022/12/15 13:40:33;;;;;;;1.13;1.02;;;;;;;13.53;26.41;99464.00;5051417;28;20028;-94
2022/12/15 13:43:02;;;;;;;1.00;0.90;;;;;;;13.66;26.33;99482.59;5044828;28;20666;-94
2022/12/15 13:45:35;;;;;;;0.85;0.82;;;;;;;13.51;26.50;99472.28;5048280;28;20051;-94
2022/12/15 13:48:04;;;;;;;1.27;1.17;;;;;;;13.44;26.27;99470.75;5049510;28;20512;-93
2022/12/15 13:50:37;;;;;;;1.05;0.70;;;;;;;13.56;26.45;99486.91;5023452;28;20036;-94
2022/12/15 13:53:03;;;;;;;1.58;1.20;;;;;;;13.59;26.40;99495.31;5037239;28;20032;-93
2022/12/15 13:55:34;;;;;;;0.95;0.80;;;;;;;13.61;26.00;99495.09;5017240;28;20031;-94
2022/12/15 13:58:12;;;;;;;1.55;1.10;;;;;;;13.45;26.05;99472.38;5033942;28;20298;-93
2022/12/15 14:00:38;;;;;;;1.80;1.00;;;;;;;13.47;26.24;99459.53;5042343;28;20078;-94
2022/12/15 14:03:05;;;;;;;1.35;1.25;;;;;;;13.49;26.31;99470.91;5050874;28;20024;-93
2022/12/15 14:05:31;;;;;;;0.95;0.90;;;;;;;13.47;26.10;99475.66;5052816;28;20029;-94
2022/12/15 14:08:00;;;;;;;1.20;1.10;;;;;;;13.60;26.14;99486.19;5046661;28;20027;-94
2022/12/15 14:10:31;;;;;;;1.30;1.20;;;;;;;13.58;25.93;99488.28;5053361;28;20028;-93
2022/12/15 14:12:59;;;;;;;3.10;1.00;;;;;;;13.44;26.09;99476.13;5061445;28;20381;-94